sensor_id;sensor_type;location;lat;lon;timestamp;pressure;altitude;pressure_sealevel;temperature
12854;BMP180;6495;51.808;7.478;2023-06-14T00:00:05;101050.00;;;21.60
12854;BMP180;6495;51.808;7.478;2023-06-14T00:02:35;101054.00;;;21.50
12854;BMP180;6495;51.808;7.478;2023-06-14T00:05:04;101054.00;;;21.50
12854;BMP180;6495;51.808;7.478;2023-06-14T00:07:39;101057.00;;;21.50
12854;BMP180;6495;51.808;7.478;2023-06-14T00:10:11;101061.00;;;21.50
12854;BMP180;6495;51.808;7.478;2023-06-14T00:12:40;101055.00;;;21.50
12854;BMP180;6495;51.808;7.478;2023-06-14T00:15:09;101057.00;;;21.40
12854;BMP180;6495;51.808;7.478;2023-06-14T00:17:37;101060.00;;;21.40
12854;BMP180;6495;51.808;7.478;2023-06-14T00:20:08;101061.00;;;21.40
12854;BMP180;6495;51.808;7.478;2023-06-14T00:22:38;101064.00;;;21.30
12854;BMP180;6495;51.808;7.478;2023-06-14T00:25:07;101063.00;;;21.30
12854;BMP180;6495;51.808;7.478;2023-06-14T00:27:56;101060.00;;;21.30
12854;BMP180;6495;51.808;7.478;2023-06-14T00:30:25;101063.00;;;21.20
12854;BMP180;6495;51.808;7.478;2023-06-14T00:32:58;101069.00;;;21.20
12854;BMP180;6495;51.808;7.478;2023-06-14T00:35:27;101070.00;;;21.20
12854;BMP180;6495;51.808;7.478;2023-06-14T00:37:58;101074.00;;;21.20
12854;BMP180;6495;51.808;7.478;2023-06-14T00:40:26;101070.00;;;21.10
12854;BMP180;6495;51.808;7.478;2023-06-14T00:42:55;101084.00;;;21.00
12854;BMP180;6495;51.808;7.478;2023-06-14T00:45:23;101068.00;;;21.00
12854;BMP180;6495;51.808;7.478;2023-06-14T00:47:52;101062.00;;;20.90
12854;BMP180;6495;51.808;7.478;2023-06-14T00:50:23;101062.00;;;20.80
12854;BMP180;6495;51.808;7.478;2023-06-14T00:52:52;101064.00;;;20.80
12854;BMP180;6495;51.808;7.478;2023-06-14T00:55:21;101068.00;;;20.70
12854;BMP180;6495;51.808;7.478;2023-06-14T00:57:50;101071.00;;;20.50
12854;BMP180;6495;51.808;7.478;2023-06-14T01:00:18;101074.00;;;20.50
12854;BMP180;6495;51.808;7.478;2023-06-14T01:02:46;101077.00;;;20.50
12854;BMP180;6495;51.808;7.478;2023-06-14T01:05:17;101074.00;;;20.40
12854;BMP180;6495;51.808;7.478;2023-06-14T01:08:18;101079.00;;;20.40
12854;BMP180;6495;51.808;7.478;2023-06-14T01:10:56;101083.00;;;20.30
12854;BMP180;6495;51.808;7.478;2023-06-14T01:13:33;101084.00;;;20.30
12854;BMP180;6495;51.808;7.478;2023-06-14T01:16:02;101082.00;;;20.30
12854;BMP180;6495;51.808;7.478;2023-06-14T01:18:31;101082.00;;;20.30
12854;BMP180;6495;51.808;7.478;2023-06-14T01:21:01;101088.00;;;20.30
12854;BMP180;6495;51.808;7.478;2023-06-14T01:23:33;101087.00;;;20.30
12854;BMP180;6495;51.808;7.478;2023-06-14T01:26:02;101099.00;;;20.30
12854;BMP180;6495;51.808;7.478;2023-06-14T01:28:33;101091.00;;;20.20
12854;BMP180;6495;51.808;7.478;2023-06-14T01:31:05;101099.00;;;20.20
12854;BMP180;6495;51.808;7.478;2023-06-14T01:33:35;101094.00;;;20.10
12854;BMP180;6495;51.808;7.478;2023-06-14T01:36:06;101094.00;;;20.10
12854;BMP180;6495;51.808;7.478;2023-06-14T01:38:38;101090.00;;;20.10
12854;BMP180;6495;51.808;7.478;2023-06-14T01:41:08;101095.00;;;20.10
12854;BMP180;6495;51.808;7.478;2023-06-14T01:43:38;101096.00;;;20.10
12854;BMP180;6495;51.808;7.478;2023-06-14T01:46:09;101090.00;;;20.10
12854;BMP180;6495;51.808;7.478;2023-06-14T01:48:41;101101.00;;;20.00
12854;BMP180;6495;51.808;7.478;2023-06-14T01:51:10;101104.00;;;20.00
12854;BMP180;6495;51.808;7.478;2023-06-14T01:53:39;101096.00;;;19.90
12854;BMP180;6495;51.808;7.478;2023-06-14T01:56:10;101104.00;;;19.90
12854;BMP180;6495;51.808;7.478;2023-06-14T01:58:38;101100.00;;;19.80
12854;BMP180;6495;51.808;7.478;2023-06-14T02:01:07;101100.00;;;19.80
12854;BMP180;6495;51.808;7.478;2023-06-14T02:03:35;101091.00;;;19.80
12854;BMP180;6495;51.808;7.478;2023-06-14T02:06:05;101088.00;;;19.80
12854;BMP180;6495;51.808;7.478;2023-06-14T02:08:33;101087.00;;;19.80
12854;BMP180;6495;51.808;7.478;2023-06-14T02:11:03;101080.00;;;19.70
12854;BMP180;6495;51.808;7.478;2023-06-14T02:13:31;101081.00;;;19.70
12854;BMP180;6495;51.808;7.478;2023-06-14T02:15:59;101084.00;;;19.70
12854;BMP180;6495;51.808;7.478;2023-06-14T02:18:28;101085.00;;;19.60
12854;BMP180;6495;51.808;7.478;2023-06-14T02:20:56;101086.00;;;19.60
12854;BMP180;6495;51.808;7.478;2023-06-14T02:23:25;101085.00;;;19.50
12854;BMP180;6495;51.808;7.478;2023-06-14T02:25:53;101084.00;;;19.50
12854;BMP180;6495;51.808;7.478;2023-06-14T02:28:22;101095.00;;;19.50
12854;BMP180;6495;51.808;7.478;2023-06-14T02:30:51;101090.00;;;19.40
12854;BMP180;6495;51.808;7.478;2023-06-14T02:33:22;101095.00;;;19.40
12854;BMP180;6495;51.808;7.478;2023-06-14T02:35:52;101103.00;;;19.40
12854;BMP180;6495;51.808;7.478;2023-06-14T02:38:20;101095.00;;;19.40
12854;BMP180;6495;51.808;7.478;2023-06-14T02:40:48;101095.00;;;19.30
12854;BMP180;6495;51.808;7.478;2023-06-14T02:43:17;101094.00;;;19.30
12854;BMP180;6495;51.808;7.478;2023-06-14T02:45:46;101096.00;;;19.30
12854;BMP180;6495;51.808;7.478;2023-06-14T02:48:14;101094.00;;;19.20
12854;BMP180;6495;51.808;7.478;2023-06-14T02:50:42;101103.00;;;19.20
12854;BMP180;6495;51.808;7.478;2023-06-14T02:53:11;101102.00;;;19.10
12854;BMP180;6495;51.808;7.478;2023-06-14T02:55:40;101099.00;;;19.10
12854;BMP180;6495;51.808;7.478;2023-06-14T02:58:08;101101.00;;;19.10
12854;BMP180;6495;51.808;7.478;2023-06-14T03:00:37;101104.00;;;19.00
12854;BMP180;6495;51.808;7.478;2023-06-14T03:03:07;101110.00;;;19.00
12854;BMP180;6495;51.808;7.478;2023-06-14T03:05:47;101109.00;;;19.00
12854;BMP180;6495;51.808;7.478;2023-06-14T03:08:19;101107.00;;;18.90
12854;BMP180;6495;51.808;7.478;2023-06-14T03:10:51;101114.00;;;18.90
12854;BMP180;6495;51.808;7.478;2023-06-14T03:13:20;101111.00;;;18.90
12854;BMP180;6495;51.808;7.478;2023-06-14T03:15:50;101109.00;;;18.90
12854;BMP180;6495;51.808;7.478;2023-06-14T03:18:22;101124.00;;;18.80
12854;BMP180;6495;51.808;7.478;2023-06-14T03:20:55;101134.00;;;18.80
12854;BMP180;6495;51.808;7.478;2023-06-14T03:23:26;101128.00;;;18.80
12854;BMP180;6495;51.808;7.478;2023-06-14T03:25:54;101131.00;;;18.70
12854;BMP180;6495;51.808;7.478;2023-06-14T03:28:23;101138.00;;;18.70
12854;BMP180;6495;51.808;7.478;2023-06-14T03:30:52;101142.00;;;18.70
12854;BMP180;6495;51.808;7.478;2023-06-14T03:33:23;101146.00;;;18.70
12854;BMP180;6495;51.808;7.478;2023-06-14T03:35:52;101146.00;;;18.60
12854;BMP180;6495;51.808;7.478;2023-06-14T03:38:21;101151.00;;;18.60
12854;BMP180;6495;51.808;7.478;2023-06-14T03:40:50;101151.00;;;18.60
12854;BMP180;6495;51.808;7.478;2023-06-14T03:43:18;101152.00;;;18.60
12854;BMP180;6495;51.808;7.478;2023-06-14T03:45:47;101150.00;;;18.60
12854;BMP180;6495;51.808;7.478;2023-06-14T03:48:15;101157.00;;;18.50
12854;BMP180;6495;51.808;7.478;2023-06-14T03:50:44;101157.00;;;18.50
12854;BMP180;6495;51.808;7.478;2023-06-14T03:53:13;101159.00;;;18.40
12854;BMP180;6495;51.808;7.478;2023-06-14T03:55:45;101161.00;;;18.30
12854;BMP180;6495;51.808;7.478;2023-06-14T03:58:16;101163.00;;;18.20
12854;BMP180;6495;51.808;7.478;2023-06-14T04:00:45;101169.00;;;18.10
12854;BMP180;6495;51.808;7.478;2023-06-14T04:03:14;101164.00;;;18.10
12854;BMP180;6495;51.808;7.478;2023-06-14T04:05:44;101177.00;;;18.10
12854;BMP180;6495;51.808;7.478;2023-06-14T04:08:17;101177.00;;;18.10
12854;BMP180;6495;51.808;7.478;2023-06-14T04:10:46;101178.00;;;18.10
12854;BMP180;6495;51.808;7.478;2023-06-14T04:13:14;101181.00;;;18.20
12854;BMP180;6495;51.808;7.478;2023-06-14T04:15:43;101179.00;;;18.20
12854;BMP180;6495;51.808;7.478;2023-06-14T04:18:21;101178.00;;;18.30
12854;BMP180;6495;51.808;7.478;2023-06-14T04:20:52;101190.00;;;18.30
12854;BMP180;6495;51.808;7.478;2023-06-14T04:23:21;101195.00;;;18.30
12854;BMP180;6495;51.808;7.478;2023-06-14T04:25:50;101194.00;;;18.30
12854;BMP180;6495;51.808;7.478;2023-06-14T04:28:18;101195.00;;;18.20
12854;BMP180;6495;51.808;7.478;2023-06-14T04:30:47;101200.00;;;18.20
12854;BMP180;6495;51.808;7.478;2023-06-14T04:33:19;101204.00;;;18.20
12854;BMP180;6495;51.808;7.478;2023-06-14T04:35:47;101206.00;;;18.20
12854;BMP180;6495;51.808;7.478;2023-06-14T04:38:20;101210.00;;;18.20
12854;BMP180;6495;51.808;7.478;2023-06-14T04:40:53;101208.00;;;18.30
12854;BMP180;6495;51.808;7.478;2023-06-14T04:43:22;101215.00;;;18.30
12854;BMP180;6495;51.808;7.478;2023-06-14T04:45:53;101213.00;;;18.40
12854;BMP180;6495;51.808;7.478;2023-06-14T04:48:24;101222.00;;;18.40
12854;BMP180;6495;51.808;7.478;2023-06-14T04:50:52;101218.00;;;18.30
12854;BMP180;6495;51.808;7.478;2023-06-14T04:53:22;101220.00;;;18.40
12854;BMP180;6495;51.808;7.478;2023-06-14T04:55:54;101224.00;;;18.40
12854;BMP180;6495;51.808;7.478;2023-06-14T04:58:22;101223.00;;;18.40
12854;BMP180;6495;51.808;7.478;2023-06-14T05:00:51;101227.00;;;18.40
12854;BMP180;6495;51.808;7.478;2023-06-14T05:03:20;101228.00;;;18.40
12854;BMP180;6495;51.808;7.478;2023-06-14T05:05:48;101232.00;;;18.40
12854;BMP180;6495;51.808;7.478;2023-06-14T05:08:17;101237.00;;;18.30
12854;BMP180;6495;51.808;7.478;2023-06-14T05:10:47;101236.00;;;18.40
12854;BMP180;6495;51.808;7.478;2023-06-14T05:13:16;101234.00;;;18.40
12854;BMP180;6495;51.808;7.478;2023-06-14T05:15:45;101234.00;;;18.30
12854;BMP180;6495;51.808;7.478;2023-06-14T05:18:14;101233.00;;;18.30
12854;BMP180;6495;51.808;7.478;2023-06-14T05:20:43;101233.00;;;18.30
12854;BMP180;6495;51.808;7.478;2023-06-14T05:23:11;101227.00;;;18.30
12854;BMP180;6495;51.808;7.478;2023-06-14T05:25:43;101228.00;;;18.30
12854;BMP180;6495;51.808;7.478;2023-06-14T05:28:13;101233.00;;;18.30
12854;BMP180;6495;51.808;7.478;2023-06-14T05:30:42;101237.00;;;18.30
12854;BMP180;6495;51.808;7.478;2023-06-14T05:33:10;101232.00;;;18.40
12854;BMP180;6495;51.808;7.478;2023-06-14T05:35:38;101231.00;;;18.50
12854;BMP180;6495;51.808;7.478;2023-06-14T05:38:09;101237.00;;;18.60
12854;BMP180;6495;51.808;7.478;2023-06-14T05:40:38;101246.00;;;18.70
12854;BMP180;6495;51.808;7.478;2023-06-14T05:43:06;101239.00;;;18.80
12854;BMP180;6495;51.808;7.478;2023-06-14T05:45:36;101239.00;;;18.90
12854;BMP180;6495;51.808;7.478;2023-06-14T05:48:06;101244.00;;;19.00
12854;BMP180;6495;51.808;7.478;2023-06-14T05:50:34;101248.00;;;19.10
12854;BMP180;6495;51.808;7.478;2023-06-14T05:53:02;101265.00;;;19.20
12854;BMP180;6495;51.808;7.478;2023-06-14T05:55:30;101259.00;;;19.20
12854;BMP180;6495;51.808;7.478;2023-06-14T05:57:58;101255.00;;;19.30
12854;BMP180;6495;51.808;7.478;2023-06-14T06:00:27;101256.00;;;19.40
12854;BMP180;6495;51.808;7.478;2023-06-14T06:02:57;101251.00;;;19.50
12854;BMP180;6495;51.808;7.478;2023-06-14T06:05:26;101258.00;;;19.50
12854;BMP180;6495;51.808;7.478;2023-06-14T06:07:54;101259.00;;;19.60
12854;BMP180;6495;51.808;7.478;2023-06-14T06:10:23;101255.00;;;19.70
12854;BMP180;6495;51.808;7.478;2023-06-14T06:12:51;101261.00;;;19.80
12854;BMP180;6495;51.808;7.478;2023-06-14T06:15:21;101265.00;;;19.80
12854;BMP180;6495;51.808;7.478;2023-06-14T06:17:49;101258.00;;;20.00
12854;BMP180;6495;51.808;7.478;2023-06-14T06:20:23;101265.00;;;20.20
12854;BMP180;6495;51.808;7.478;2023-06-14T06:22:56;101265.00;;;20.30
12854;BMP180;6495;51.808;7.478;2023-06-14T06:25:26;101259.00;;;20.30
12854;BMP180;6495;51.808;7.478;2023-06-14T06:27:55;101262.00;;;20.40
12854;BMP180;6495;51.808;7.478;2023-06-14T06:30:24;101272.00;;;20.50
12854;BMP180;6495;51.808;7.478;2023-06-14T06:32:52;101265.00;;;20.60
12854;BMP180;6495;51.808;7.478;2023-06-14T06:35:24;101270.00;;;20.80
12854;BMP180;6495;51.808;7.478;2023-06-14T06:37:52;101276.00;;;20.80
12854;BMP180;6495;51.808;7.478;2023-06-14T06:40:21;101280.00;;;20.90
12854;BMP180;6495;51.808;7.478;2023-06-14T06:42:49;101285.00;;;21.00
12854;BMP180;6495;51.808;7.478;2023-06-14T06:45:19;101292.00;;;21.10
12854;BMP180;6495;51.808;7.478;2023-06-14T06:47:51;101290.00;;;21.10
12854;BMP180;6495;51.808;7.478;2023-06-14T06:50:19;101292.00;;;21.20
12854;BMP180;6495;51.808;7.478;2023-06-14T06:52:51;101298.00;;;21.20
12854;BMP180;6495;51.808;7.478;2023-06-14T06:55:20;101302.00;;;21.20
12854;BMP180;6495;51.808;7.478;2023-06-14T06:57:49;101299.00;;;21.20
12854;BMP180;6495;51.808;7.478;2023-06-14T07:00:21;101313.00;;;21.20
12854;BMP180;6495;51.808;7.478;2023-06-14T07:02:52;101314.00;;;21.20
12854;BMP180;6495;51.808;7.478;2023-06-14T07:05:22;101315.00;;;21.20
12854;BMP180;6495;51.808;7.478;2023-06-14T07:07:52;101318.00;;;21.20
12854;BMP180;6495;51.808;7.478;2023-06-14T07:10:24;101316.00;;;21.20
12854;BMP180;6495;51.808;7.478;2023-06-14T07:12:52;101323.00;;;21.20
12854;BMP180;6495;51.808;7.478;2023-06-14T07:15:21;101323.00;;;21.30
12854;BMP180;6495;51.808;7.478;2023-06-14T07:17:49;101321.00;;;21.30
12854;BMP180;6495;51.808;7.478;2023-06-14T07:20:17;101330.00;;;21.30
12854;BMP180;6495;51.808;7.478;2023-06-14T07:22:45;101325.00;;;21.30
12854;BMP180;6495;51.808;7.478;2023-06-14T07:25:15;101329.00;;;21.30
12854;BMP180;6495;51.808;7.478;2023-06-14T07:27:47;101313.00;;;21.30
12854;BMP180;6495;51.808;7.478;2023-06-14T07:30:15;101319.00;;;21.50
12854;BMP180;6495;51.808;7.478;2023-06-14T07:32:44;101321.00;;;21.60
12854;BMP180;6495;51.808;7.478;2023-06-14T07:35:12;101315.00;;;21.60
12854;BMP180;6495;51.808;7.478;2023-06-14T07:37:41;101317.00;;;21.70
12854;BMP180;6495;51.808;7.478;2023-06-14T07:40:10;101302.00;;;21.80
12854;BMP180;6495;51.808;7.478;2023-06-14T07:42:41;101322.00;;;21.90
12854;BMP180;6495;51.808;7.478;2023-06-14T07:45:11;101328.00;;;21.80
12854;BMP180;6495;51.808;7.478;2023-06-14T07:47:40;101313.00;;;21.70
12854;BMP180;6495;51.808;7.478;2023-06-14T07:50:09;101315.00;;;21.80
12854;BMP180;6495;51.808;7.478;2023-06-14T07:52:39;101315.00;;;21.80
12854;BMP180;6495;51.808;7.478;2023-06-14T07:55:08;101314.00;;;21.90
12854;BMP180;6495;51.808;7.478;2023-06-14T07:57:40;101322.00;;;22.10
12854;BMP180;6495;51.808;7.478;2023-06-14T08:00:10;101315.00;;;22.10
12854;BMP180;6495;51.808;7.478;2023-06-14T08:02:43;101321.00;;;22.20
12854;BMP180;6495;51.808;7.478;2023-06-14T08:05:12;101322.00;;;22.20
12854;BMP180;6495;51.808;7.478;2023-06-14T08:07:41;101318.00;;;22.20
12854;BMP180;6495;51.808;7.478;2023-06-14T08:10:09;101317.00;;;22.20
12854;BMP180;6495;51.808;7.478;2023-06-14T08:12:39;101329.00;;;22.30
12854;BMP180;6495;51.808;7.478;2023-06-14T08:15:08;101333.00;;;22.20
12854;BMP180;6495;51.808;7.478;2023-06-14T08:17:45;101331.00;;;22.20
12854;BMP180;6495;51.808;7.478;2023-06-14T08:20:13;101314.00;;;22.20
12854;BMP180;6495;51.808;7.478;2023-06-14T08:22:43;101318.00;;;22.10
12854;BMP180;6495;51.808;7.478;2023-06-14T08:25:13;101323.00;;;22.10
12854;BMP180;6495;51.808;7.478;2023-06-14T08:27:43;101318.00;;;22.20
12854;BMP180;6495;51.808;7.478;2023-06-14T08:30:13;101333.00;;;22.20
12854;BMP180;6495;51.808;7.478;2023-06-14T08:32:41;101325.00;;;22.20
12854;BMP180;6495;51.808;7.478;2023-06-14T08:35:10;101328.00;;;22.10
12854;BMP180;6495;51.808;7.478;2023-06-14T08:37:40;101331.00;;;22.20
12854;BMP180;6495;51.808;7.478;2023-06-14T08:40:20;101323.00;;;22.30
12854;BMP180;6495;51.808;7.478;2023-06-14T08:42:54;101324.00;;;22.20
12854;BMP180;6495;51.808;7.478;2023-06-14T08:45:24;101334.00;;;22.20
12854;BMP180;6495;51.808;7.478;2023-06-14T08:47:55;101342.00;;;22.20
12854;BMP180;6495;51.808;7.478;2023-06-14T08:50:28;101333.00;;;22.20
12854;BMP180;6495;51.808;7.478;2023-06-14T08:53:02;101330.00;;;22.10
12854;BMP180;6495;51.808;7.478;2023-06-14T08:55:32;101330.00;;;22.20
12854;BMP180;6495;51.808;7.478;2023-06-14T08:58:05;101323.00;;;22.40
12854;BMP180;6495;51.808;7.478;2023-06-14T09:00:36;101316.00;;;22.50
12854;BMP180;6495;51.808;7.478;2023-06-14T09:03:05;101316.00;;;22.60
12854;BMP180;6495;51.808;7.478;2023-06-14T09:05:41;101323.00;;;22.70
12854;BMP180;6495;51.808;7.478;2023-06-14T09:08:11;101326.00;;;22.80
12854;BMP180;6495;51.808;7.478;2023-06-14T09:10:40;101321.00;;;22.80
12854;BMP180;6495;51.808;7.478;2023-06-14T09:13:10;101339.00;;;22.80
12854;BMP180;6495;51.808;7.478;2023-06-14T09:15:38;101335.00;;;22.70
12854;BMP180;6495;51.808;7.478;2023-06-14T09:18:06;101331.00;;;22.70
12854;BMP180;6495;51.808;7.478;2023-06-14T09:20:35;101322.00;;;22.70
12854;BMP180;6495;51.808;7.478;2023-06-14T09:23:04;101342.00;;;22.80
12854;BMP180;6495;51.808;7.478;2023-06-14T09:25:42;101336.00;;;22.70
12854;BMP180;6495;51.808;7.478;2023-06-14T09:28:13;101328.00;;;22.70
12854;BMP180;6495;51.808;7.478;2023-06-14T09:30:44;101338.00;;;22.60
12854;BMP180;6495;51.808;7.478;2023-06-14T09:33:17;101344.00;;;22.70
12854;BMP180;6495;51.808;7.478;2023-06-14T09:35:46;101350.00;;;22.70
12854;BMP180;6495;51.808;7.478;2023-06-14T09:38:14;101351.00;;;22.70
12854;BMP180;6495;51.808;7.478;2023-06-14T09:40:42;101350.00;;;22.80
12854;BMP180;6495;51.808;7.478;2023-06-14T09:43:10;101348.00;;;23.00
12854;BMP180;6495;51.808;7.478;2023-06-14T09:45:40;101357.00;;;23.00
12854;BMP180;6495;51.808;7.478;2023-06-14T09:48:12;101356.00;;;23.00
12854;BMP180;6495;51.808;7.478;2023-06-14T09:50:45;101364.00;;;23.20
12854;BMP180;6495;51.808;7.478;2023-06-14T09:53:16;101367.00;;;23.20
12854;BMP180;6495;51.808;7.478;2023-06-14T09:55:50;101346.00;;;23.10
12854;BMP180;6495;51.808;7.478;2023-06-14T09:58:23;101365.00;;;23.20
12854;BMP180;6495;51.808;7.478;2023-06-14T10:00:55;101355.00;;;23.20
12854;BMP180;6495;51.808;7.478;2023-06-14T10:03:28;101356.00;;;23.10
12854;BMP180;6495;51.808;7.478;2023-06-14T10:06:10;101350.00;;;23.20
12854;BMP180;6495;51.808;7.478;2023-06-14T10:08:40;101341.00;;;23.20
12854;BMP180;6495;51.808;7.478;2023-06-14T10:11:09;101355.00;;;23.40
12854;BMP180;6495;51.808;7.478;2023-06-14T10:13:38;101363.00;;;23.30
12854;BMP180;6495;51.808;7.478;2023-06-14T10:16:16;101355.00;;;23.40
12854;BMP180;6495;51.808;7.478;2023-06-14T10:18:51;101349.00;;;23.30
12854;BMP180;6495;51.808;7.478;2023-06-14T10:21:27;101347.00;;;23.50
12854;BMP180;6495;51.808;7.478;2023-06-14T10:24:05;101346.00;;;23.50
12854;BMP180;6495;51.808;7.478;2023-06-14T10:26:35;101343.00;;;23.50
12854;BMP180;6495;51.808;7.478;2023-06-14T10:29:08;101350.00;;;23.60
12854;BMP180;6495;51.808;7.478;2023-06-14T10:31:43;101344.00;;;23.50
12854;BMP180;6495;51.808;7.478;2023-06-14T10:34:12;101340.00;;;23.60
12854;BMP180;6495;51.808;7.478;2023-06-14T10:37:02;101350.00;;;23.80
12854;BMP180;6495;51.808;7.478;2023-06-14T10:39:32;101355.00;;;23.70
12854;BMP180;6495;51.808;7.478;2023-06-14T10:42:02;101345.00;;;23.70
12854;BMP180;6495;51.808;7.478;2023-06-14T10:44:41;101355.00;;;23.80
12854;BMP180;6495;51.808;7.478;2023-06-14T10:47:25;101344.00;;;23.90
12854;BMP180;6495;51.808;7.478;2023-06-14T10:49:57;101356.00;;;24.10
12854;BMP180;6495;51.808;7.478;2023-06-14T10:52:28;101345.00;;;24.10
12854;BMP180;6495;51.808;7.478;2023-06-14T10:55:11;101346.00;;;24.20
12854;BMP180;6495;51.808;7.478;2023-06-14T10:57:45;101348.00;;;24.20
12854;BMP180;6495;51.808;7.478;2023-06-14T11:00:20;101347.00;;;24.30
12854;BMP180;6495;51.808;7.478;2023-06-14T11:03:36;101348.00;;;24.30
12854;BMP180;6495;51.808;7.478;2023-06-14T11:06:15;101350.00;;;24.30
12854;BMP180;6495;51.808;7.478;2023-06-14T11:12:13;101344.00;;;24.40
12854;BMP180;6495;51.808;7.478;2023-06-14T11:14:42;101345.00;;;24.40
12854;BMP180;6495;51.808;7.478;2023-06-14T11:17:13;101342.00;;;24.40
12854;BMP180;6495;51.808;7.478;2023-06-14T11:19:44;101345.00;;;24.60
12854;BMP180;6495;51.808;7.478;2023-06-14T11:22:12;101336.00;;;24.60
12854;BMP180;6495;51.808;7.478;2023-06-14T11:24:43;101336.00;;;24.60
12854;BMP180;6495;51.808;7.478;2023-06-14T11:27:11;101337.00;;;24.50
12854;BMP180;6495;51.808;7.478;2023-06-14T11:29:48;101344.00;;;24.50
12854;BMP180;6495;51.808;7.478;2023-06-14T11:32:16;101338.00;;;24.60
12854;BMP180;6495;51.808;7.478;2023-06-14T11:34:47;101330.00;;;24.40
12854;BMP180;6495;51.808;7.478;2023-06-14T11:37:16;101329.00;;;24.50
12854;BMP180;6495;51.808;7.478;2023-06-14T11:39:44;101328.00;;;24.60
12854;BMP180;6495;51.808;7.478;2023-06-14T11:42:15;101331.00;;;24.90
12854;BMP180;6495;51.808;7.478;2023-06-14T11:44:46;101332.00;;;25.10
12854;BMP180;6495;51.808;7.478;2023-06-14T11:47:14;101326.00;;;25.20
12854;BMP180;6495;51.808;7.478;2023-06-14T11:49:43;101338.00;;;25.10
12854;BMP180;6495;51.808;7.478;2023-06-14T11:52:13;101343.00;;;25.00
12854;BMP180;6495;51.808;7.478;2023-06-14T11:54:41;101335.00;;;25.00
12854;BMP180;6495;51.808;7.478;2023-06-14T11:57:10;101338.00;;;25.00
12854;BMP180;6495;51.808;7.478;2023-06-14T11:59:39;101328.00;;;24.90
12854;BMP180;6495;51.808;7.478;2023-06-14T12:02:08;101326.00;;;25.00
12854;BMP180;6495;51.808;7.478;2023-06-14T12:04:36;101325.00;;;25.10
12854;BMP180;6495;51.808;7.478;2023-06-14T12:07:16;101327.00;;;25.20
12854;BMP180;6495;51.808;7.478;2023-06-14T12:10:05;101325.00;;;25.10
12854;BMP180;6495;51.808;7.478;2023-06-14T12:12:37;101331.00;;;25.10
12854;BMP180;6495;51.808;7.478;2023-06-14T12:15:07;101322.00;;;25.10
12854;BMP180;6495;51.808;7.478;2023-06-14T12:17:37;101330.00;;;25.20
12854;BMP180;6495;51.808;7.478;2023-06-14T12:20:11;101333.00;;;25.40
12854;BMP180;6495;51.808;7.478;2023-06-14T12:22:51;101325.00;;;25.60
12854;BMP180;6495;51.808;7.478;2023-06-14T12:25:26;101328.00;;;25.70
12854;BMP180;6495;51.808;7.478;2023-06-14T12:27:57;101338.00;;;25.70
12854;BMP180;6495;51.808;7.478;2023-06-14T12:30:25;101326.00;;;25.70
12854;BMP180;6495;51.808;7.478;2023-06-14T12:32:53;101339.00;;;25.80
12854;BMP180;6495;51.808;7.478;2023-06-14T12:35:22;101341.00;;;25.90
12854;BMP180;6495;51.808;7.478;2023-06-14T12:37:52;101334.00;;;25.80
12854;BMP180;6495;51.808;7.478;2023-06-14T12:40:22;101326.00;;;25.70
12854;BMP180;6495;51.808;7.478;2023-06-14T12:42:50;101327.00;;;25.60
12854;BMP180;6495;51.808;7.478;2023-06-14T12:45:18;101337.00;;;25.70
12854;BMP180;6495;51.808;7.478;2023-06-14T12:47:47;101333.00;;;25.60
12854;BMP180;6495;51.808;7.478;2023-06-14T12:50:15;101321.00;;;25.60
12854;BMP180;6495;51.808;7.478;2023-06-14T12:52:44;101328.00;;;25.50
12854;BMP180;6495;51.808;7.478;2023-06-14T12:55:13;101328.00;;;25.60
12854;BMP180;6495;51.808;7.478;2023-06-14T12:57:42;101329.00;;;25.60
12854;BMP180;6495;51.808;7.478;2023-06-14T13:00:12;101338.00;;;25.80
12854;BMP180;6495;51.808;7.478;2023-06-14T13:02:41;101333.00;;;25.70
12854;BMP180;6495;51.808;7.478;2023-06-14T13:05:09;101339.00;;;25.70
12854;BMP180;6495;51.808;7.478;2023-06-14T13:07:37;101325.00;;;25.70
12854;BMP180;6495;51.808;7.478;2023-06-14T13:10:07;101332.00;;;25.90
12854;BMP180;6495;51.808;7.478;2023-06-14T13:12:37;101324.00;;;25.90
12854;BMP180;6495;51.808;7.478;2023-06-14T13:15:06;101329.00;;;26.10
12854;BMP180;6495;51.808;7.478;2023-06-14T13:17:35;101335.00;;;26.30
12854;BMP180;6495;51.808;7.478;2023-06-14T13:20:06;101334.00;;;26.20
12854;BMP180;6495;51.808;7.478;2023-06-14T13:22:35;101339.00;;;26.20
12854;BMP180;6495;51.808;7.478;2023-06-14T13:25:05;101334.00;;;26.30
12854;BMP180;6495;51.808;7.478;2023-06-14T13:27:33;101343.00;;;26.40
12854;BMP180;6495;51.808;7.478;2023-06-14T13:30:04;101338.00;;;26.40
12854;BMP180;6495;51.808;7.478;2023-06-14T13:32:33;101337.00;;;26.60
12854;BMP180;6495;51.808;7.478;2023-06-14T13:35:02;101336.00;;;26.60
12854;BMP180;6495;51.808;7.478;2023-06-14T13:37:31;101338.00;;;26.50
12854;BMP180;6495;51.808;7.478;2023-06-14T13:39:59;101330.00;;;26.40
12854;BMP180;6495;51.808;7.478;2023-06-14T13:42:28;101324.00;;;26.40
12854;BMP180;6495;51.808;7.478;2023-06-14T13:44:58;101328.00;;;26.60
12854;BMP180;6495;51.808;7.478;2023-06-14T13:47:28;101331.00;;;26.80
12854;BMP180;6495;51.808;7.478;2023-06-14T13:49:57;101329.00;;;26.90
12854;BMP180;6495;51.808;7.478;2023-06-14T13:52:25;101330.00;;;26.90
12854;BMP180;6495;51.808;7.478;2023-06-14T13:54:54;101330.00;;;26.80
12854;BMP180;6495;51.808;7.478;2023-06-14T13:57:22;101324.00;;;26.60
12854;BMP180;6495;51.808;7.478;2023-06-14T13:59:50;101321.00;;;26.60
12854;BMP180;6495;51.808;7.478;2023-06-14T14:02:20;101327.00;;;26.60
12854;BMP180;6495;51.808;7.478;2023-06-14T14:04:50;101319.00;;;26.70
12854;BMP180;6495;51.808;7.478;2023-06-14T14:07:20;101329.00;;;26.50
12854;BMP180;6495;51.808;7.478;2023-06-14T14:09:49;101323.00;;;26.40
12854;BMP180;6495;51.808;7.478;2023-06-14T14:12:17;101319.00;;;26.30
12854;BMP180;6495;51.808;7.478;2023-06-14T14:14:45;101307.00;;;26.30
12854;BMP180;6495;51.808;7.478;2023-06-14T14:17:14;101309.00;;;26.50
12854;BMP180;6495;51.808;7.478;2023-06-14T14:19:42;101329.00;;;26.60
12854;BMP180;6495;51.808;7.478;2023-06-14T14:22:12;101328.00;;;26.40
12854;BMP180;6495;51.808;7.478;2023-06-14T14:24:40;101325.00;;;26.20
12854;BMP180;6495;51.808;7.478;2023-06-14T14:27:10;101310.00;;;26.20
12854;BMP180;6495;51.808;7.478;2023-06-14T14:29:38;101314.00;;;26.40